sensor_id;sensor_type;location;lat;lon;timestamp;temperature;humidity
12708;DHT22;6418;50.824;4.718;2023-10-08T00:02:10;16.30;99.90
12708;DHT22;6418;50.824;4.718;2023-10-08T00:04:40;16.30;99.90
12708;DHT22;6418;50.824;4.718;2023-10-08T00:07:09;16.20;99.90
12708;DHT22;6418;50.824;4.718;2023-10-08T00:09:37;16.20;99.90
12708;DHT22;6418;50.824;4.718;2023-10-08T00:12:06;16.20;99.90
12708;DHT22;6418;50.824;4.718;2023-10-08T00:14:34;16.10;99.90
12708;DHT22;6418;50.824;4.718;2023-10-08T00:17:10;16.10;99.90
12708;DHT22;6418;50.824;4.718;2023-10-08T00:19:38;16.10;99.90
12708;DHT22;6418;50.824;4.718;2023-10-08T00:22:05;16.10;99.90
12708;DHT22;6418;50.824;4.718;2023-10-08T00:24:33;16.10;99.90
12708;DHT22;6418;50.824;4.718;2023-10-08T00:27:00;16.00;99.90
12708;DHT22;6418;50.824;4.718;2023-10-08T00:29:34;16.00;99.90
12708;DHT22;6418;50.824;4.718;2023-10-08T00:32:05;16.00;99.90
12708;DHT22;6418;50.824;4.718;2023-10-08T00:34:37;16.00;99.90
12708;DHT22;6418;50.824;4.718;2023-10-08T00:37:07;15.90;99.90
12708;DHT22;6418;50.824;4.718;2023-10-08T00:39:36;15.90;99.90
12708;DHT22;6418;50.824;4.718;2023-10-08T00:42:05;15.90;99.90
12708;DHT22;6418;50.824;4.718;2023-10-08T00:44:35;15.90;99.90
12708;DHT22;6418;50.824;4.718;2023-10-08T00:47:13;15.80;99.90
12708;DHT22;6418;50.824;4.718;2023-10-08T00:49:41;15.80;99.90
12708;DHT22;6418;50.824;4.718;2023-10-08T00:52:34;15.80;99.90
12708;DHT22;6418;50.824;4.718;2023-10-08T00:55:08;15.70;99.90
12708;DHT22;6418;50.824;4.718;2023-10-08T00:57:40;15.70;99.90
12708;DHT22;6418;50.824;4.718;2023-10-08T01:00:10;15.70;99.90
12708;DHT22;6418;50.824;4.718;2023-10-08T01:02:47;15.70;99.90
12708;DHT22;6418;50.824;4.718;2023-10-08T01:05:21;15.60;99.90
12708;DHT22;6418;50.824;4.718;2023-10-08T01:07:54;15.60;99.90
12708;DHT22;6418;50.824;4.718;2023-10-08T01:10:22;15.60;99.90
12708;DHT22;6418;50.824;4.718;2023-10-08T01:12:50;15.60;99.90
12708;DHT22;6418;50.824;4.718;2023-10-08T01:15:32;15.50;99.90
12708;DHT22;6418;50.824;4.718;2023-10-08T01:18:02;15.50;99.90
12708;DHT22;6418;50.824;4.718;2023-10-08T01:20:31;15.50;99.90
12708;DHT22;6418;50.824;4.718;2023-10-08T01:23:04;15.40;99.90
12708;DHT22;6418;50.824;4.718;2023-10-08T01:25:36;15.40;99.90
12708;DHT22;6418;50.824;4.718;2023-10-08T01:28:04;15.40;99.90
12708;DHT22;6418;50.824;4.718;2023-10-08T01:30:40;15.30;99.90
12708;DHT22;6418;50.824;4.718;2023-10-08T01:33:08;15.30;99.90
12708;DHT22;6418;50.824;4.718;2023-10-08T01:35:39;15.30;99.90
12708;DHT22;6418;50.824;4.718;2023-10-08T01:38:08;15.20;99.90
12708;DHT22;6418;50.824;4.718;2023-10-08T01:40:40;15.20;99.90
12708;DHT22;6418;50.824;4.718;2023-10-08T01:43:07;15.10;99.90
12708;DHT22;6418;50.824;4.718;2023-10-08T01:45:36;15.10;99.90
12708;DHT22;6418;50.824;4.718;2023-10-08T01:48:06;15.10;99.90
12708;DHT22;6418;50.824;4.718;2023-10-08T01:50:35;15.10;99.90
12708;DHT22;6418;50.824;4.718;2023-10-08T01:53:03;15.10;99.90
12708;DHT22;6418;50.824;4.718;2023-10-08T01:55:35;15.00;99.90
12708;DHT22;6418;50.824;4.718;2023-10-08T01:58:15;15.00;99.90
12708;DHT22;6418;50.824;4.718;2023-10-08T02:00:44;14.90;99.90
12708;DHT22;6418;50.824;4.718;2023-10-08T02:03:12;15.00;99.90
12708;DHT22;6418;50.824;4.718;2023-10-08T02:05:41;14.90;99.90
12708;DHT22;6418;50.824;4.718;2023-10-08T02:08:09;14.90;99.90
12708;DHT22;6418;50.824;4.718;2023-10-08T02:10:38;14.90;99.90
12708;DHT22;6418;50.824;4.718;2023-10-08T02:13:06;14.80;99.90
12708;DHT22;6418;50.824;4.718;2023-10-08T02:15:35;14.80;99.90
12708;DHT22;6418;50.824;4.718;2023-10-08T02:18:05;14.80;99.90
12708;DHT22;6418;50.824;4.718;2023-10-08T02:20:32;14.80;99.90
12708;DHT22;6418;50.824;4.718;2023-10-08T02:22:59;14.80;99.90
12708;DHT22;6418;50.824;4.718;2023-10-08T02:25:26;14.80;99.90
12708;DHT22;6418;50.824;4.718;2023-10-08T02:27:55;14.80;99.90
12708;DHT22;6418;50.824;4.718;2023-10-08T02:30:23;14.70;99.90
12708;DHT22;6418;50.824;4.718;2023-10-08T02:32:50;14.70;99.90
12708;DHT22;6418;50.824;4.718;2023-10-08T02:35:18;14.70;99.90
12708;DHT22;6418;50.824;4.718;2023-10-08T02:37:45;14.70;99.90
12708;DHT22;6418;50.824;4.718;2023-10-08T02:40:12;14.60;99.90
12708;DHT22;6418;50.824;4.718;2023-10-08T02:42:51;14.70;99.90
12708;DHT22;6418;50.824;4.718;2023-10-08T02:45:25;14.60;99.90
12708;DHT22;6418;50.824;4.718;2023-10-08T02:47:52;14.60;99.90
12708;DHT22;6418;50.824;4.718;2023-10-08T02:50:20;14.60;99.90
12708;DHT22;6418;50.824;4.718;2023-10-08T02:52:48;14.60;99.90
12708;DHT22;6418;50.824;4.718;2023-10-08T02:55:16;14.60;99.90
12708;DHT22;6418;50.824;4.718;2023-10-08T02:57:54;14.60;99.90
12708;DHT22;6418;50.824;4.718;2023-10-08T03:00:24;14.60;99.90
12708;DHT22;6418;50.824;4.718;2023-10-08T03:02:56;14.60;99.90
12708;DHT22;6418;50.824;4.718;2023-10-08T03:05:23;14.60;99.90
12708;DHT22;6418;50.824;4.718;2023-10-08T03:07:55;14.60;99.90
12708;DHT22;6418;50.824;4.718;2023-10-08T03:10:23;14.60;99.90
12708;DHT22;6418;50.824;4.718;2023-10-08T03:12:57;14.60;99.90
12708;DHT22;6418;50.824;4.718;2023-10-08T03:15:31;14.60;99.90
12708;DHT22;6418;50.824;4.718;2023-10-08T03:18:05;14.60;99.90
12708;DHT22;6418;50.824;4.718;2023-10-08T03:20:36;14.60;99.90
12708;DHT22;6418;50.824;4.718;2023-10-08T03:23:09;14.60;99.90
12708;DHT22;6418;50.824;4.718;2023-10-08T03:25:51;14.60;99.90
12708;DHT22;6418;50.824;4.718;2023-10-08T03:28:22;14.60;99.90
12708;DHT22;6418;50.824;4.718;2023-10-08T03:30:52;14.60;99.90
12708;DHT22;6418;50.824;4.718;2023-10-08T03:33:28;14.60;99.90
12708;DHT22;6418;50.824;4.718;2023-10-08T03:36:00;14.60;99.90
12708;DHT22;6418;50.824;4.718;2023-10-08T03:38:35;14.60;99.90
12708;DHT22;6418;50.824;4.718;2023-10-08T03:41:16;14.60;99.90
12708;DHT22;6418;50.824;4.718;2023-10-08T03:43:44;14.50;99.90
12708;DHT22;6418;50.824;4.718;2023-10-08T03:46:20;14.50;99.90
12708;DHT22;6418;50.824;4.718;2023-10-08T03:48:50;14.50;99.90
12708;DHT22;6418;50.824;4.718;2023-10-08T03:51:18;14.50;99.90
12708;DHT22;6418;50.824;4.718;2023-10-08T03:53:47;14.50;99.90
12708;DHT22;6418;50.824;4.718;2023-10-08T03:56:32;14.50;99.90
12708;DHT22;6418;50.824;4.718;2023-10-08T03:59:02;14.50;99.90
12708;DHT22;6418;50.824;4.718;2023-10-08T04:01:39;14.50;99.90
12708;DHT22;6418;50.824;4.718;2023-10-08T04:04:07;14.50;99.90
12708;DHT22;6418;50.824;4.718;2023-10-08T04:06:38;14.50;99.90
12708;DHT22;6418;50.824;4.718;2023-10-08T04:09:13;14.50;99.90
12708;DHT22;6418;50.824;4.718;2023-10-08T04:11:50;14.50;99.90
12708;DHT22;6418;50.824;4.718;2023-10-08T04:14:22;14.50;99.90
12708;DHT22;6418;50.824;4.718;2023-10-08T04:16:51;14.40;99.90
12708;DHT22;6418;50.824;4.718;2023-10-08T04:19:18;14.40;99.90
12708;DHT22;6418;50.824;4.718;2023-10-08T04:21:47;14.40;99.90
12708;DHT22;6418;50.824;4.718;2023-10-08T04:24:24;14.40;99.90
12708;DHT22;6418;50.824;4.718;2023-10-08T04:27:00;14.40;99.90
12708;DHT22;6418;50.824;4.718;2023-10-08T04:29:31;14.40;99.90
12708;DHT22;6418;50.824;4.718;2023-10-08T04:32:00;14.30;99.90
12708;DHT22;6418;50.824;4.718;2023-10-08T04:34:37;14.30;99.90
12708;DHT22;6418;50.824;4.718;2023-10-08T04:37:10;14.30;99.90
12708;DHT22;6418;50.824;4.718;2023-10-08T04:39:38;14.30;99.90
12708;DHT22;6418;50.824;4.718;2023-10-08T04:42:12;14.20;99.90
12708;DHT22;6418;50.824;4.718;2023-10-08T04:44:40;14.20;99.90
12708;DHT22;6418;50.824;4.718;2023-10-08T04:47:08;14.20;99.90
12708;DHT22;6418;50.824;4.718;2023-10-08T04:49:56;14.10;99.90
12708;DHT22;6418;50.824;4.718;2023-10-08T04:52:23;14.10;99.90
12708;DHT22;6418;50.824;4.718;2023-10-08T04:54:51;14.10;99.90
12708;DHT22;6418;50.824;4.718;2023-10-08T04:57:20;14.00;99.90
12708;DHT22;6418;50.824;4.718;2023-10-08T04:59:49;14.00;99.90
12708;DHT22;6418;50.824;4.718;2023-10-08T05:02:18;13.90;99.90
12708;DHT22;6418;50.824;4.718;2023-10-08T05:05:00;13.90;99.90
12708;DHT22;6418;50.824;4.718;2023-10-08T05:07:44;13.90;99.90
12708;DHT22;6418;50.824;4.718;2023-10-08T05:10:29;13.90;99.90
12708;DHT22;6418;50.824;4.718;2023-10-08T05:13:19;13.80;99.90
12708;DHT22;6418;50.824;4.718;2023-10-08T05:15:56;13.80;99.90
12708;DHT22;6418;50.824;4.718;2023-10-08T05:18:39;13.80;99.90
12708;DHT22;6418;50.824;4.718;2023-10-08T05:21:19;13.80;99.90
12708;DHT22;6418;50.824;4.718;2023-10-08T05:23:54;13.70;99.90
12708;DHT22;6418;50.824;4.718;2023-10-08T05:26:38;13.70;99.90
12708;DHT22;6418;50.824;4.718;2023-10-08T05:29:25;13.70;99.90
12708;DHT22;6418;50.824;4.718;2023-10-08T05:32:18;13.70;99.90
12708;DHT22;6418;50.824;4.718;2023-10-08T05:35:06;13.60;99.90
12708;DHT22;6418;50.824;4.718;2023-10-08T05:37:47;13.60;99.90
12708;DHT22;6418;50.824;4.718;2023-10-08T05:40:18;13.60;99.90
12708;DHT22;6418;50.824;4.718;2023-10-08T05:43:07;13.60;99.90
12708;DHT22;6418;50.824;4.718;2023-10-08T05:45:48;13.60;99.90
12708;DHT22;6418;50.824;4.718;2023-10-08T05:48:38;13.50;99.90
12708;DHT22;6418;50.824;4.718;2023-10-08T05:51:12;13.50;99.90
12708;DHT22;6418;50.824;4.718;2023-10-08T05:53:49;13.50;99.90
12708;DHT22;6418;50.824;4.718;2023-10-08T05:56:21;13.50;99.90
12708;DHT22;6418;50.824;4.718;2023-10-08T05:58:54;13.50;99.90
12708;DHT22;6418;50.824;4.718;2023-10-08T06:01:41;13.50;99.90
12708;DHT22;6418;50.824;4.718;2023-10-08T06:04:07;13.40;99.90
12708;DHT22;6418;50.824;4.718;2023-10-08T06:07:09;13.40;99.90
12708;DHT22;6418;50.824;4.718;2023-10-08T06:09:46;13.40;99.90
12708;DHT22;6418;50.824;4.718;2023-10-08T06:12:27;13.40;99.90
12708;DHT22;6418;50.824;4.718;2023-10-08T06:14:55;13.40;99.90
12708;DHT22;6418;50.824;4.718;2023-10-08T06:17:37;13.40;99.90
12708;DHT22;6418;50.824;4.718;2023-10-08T06:20:22;13.40;99.90
12708;DHT22;6418;50.824;4.718;2023-10-08T06:22:54;13.40;99.90
12708;DHT22;6418;50.824;4.718;2023-10-08T06:25:27;13.40;99.90
12708;DHT22;6418;50.824;4.718;2023-10-08T06:27:55;13.40;99.90
12708;DHT22;6418;50.824;4.718;2023-10-08T06:30:23;13.40;99.90
12708;DHT22;6418;50.824;4.718;2023-10-08T06:32:55;13.50;99.90
12708;DHT22;6418;50.824;4.718;2023-10-08T06:35:22;13.50;99.90
12708;DHT22;6418;50.824;4.718;2023-10-08T06:37:54;13.50;99.90
12708;DHT22;6418;50.824;4.718;2023-10-08T06:40:25;13.50;99.90
12708;DHT22;6418;50.824;4.718;2023-10-08T06:43:10;13.50;99.90
12708;DHT22;6418;50.824;4.718;2023-10-08T06:45:48;13.50;99.90
12708;DHT22;6418;50.824;4.718;2023-10-08T06:48:18;13.60;99.90
12708;DHT22;6418;50.824;4.718;2023-10-08T06:50:46;13.60;99.90
12708;DHT22;6418;50.824;4.718;2023-10-08T06:53:15;13.60;99.90
12708;DHT22;6418;50.824;4.718;2023-10-08T06:55:44;13.60;99.90
12708;DHT22;6418;50.824;4.718;2023-10-08T06:58:13;13.70;99.90
12708;DHT22;6418;50.824;4.718;2023-10-08T07:00:42;13.70;99.90
12708;DHT22;6418;50.824;4.718;2023-10-08T07:03:15;13.70;99.90
12708;DHT22;6418;50.824;4.718;2023-10-08T07:05:44;13.80;99.90
12708;DHT22;6418;50.824;4.718;2023-10-08T07:08:21;13.80;99.90
12708;DHT22;6418;50.824;4.718;2023-10-08T07:10:49;13.80;99.90
12708;DHT22;6418;50.824;4.718;2023-10-08T07:13:16;13.90;99.90
12708;DHT22;6418;50.824;4.718;2023-10-08T07:15:45;13.90;99.90
12708;DHT22;6418;50.824;4.718;2023-10-08T07:18:12;13.90;99.90
12708;DHT22;6418;50.824;4.718;2023-10-08T07:20:44;14.00;99.90
12708;DHT22;6418;50.824;4.718;2023-10-08T07:23:11;14.10;99.90
12708;DHT22;6418;50.824;4.718;2023-10-08T07:25:54;14.10;99.90
12708;DHT22;6418;50.824;4.718;2023-10-08T07:28:26;14.10;99.90
12708;DHT22;6418;50.824;4.718;2023-10-08T07:30:53;14.20;99.90
12708;DHT22;6418;50.824;4.718;2023-10-08T07:33:20;14.30;99.90
12708;DHT22;6418;50.824;4.718;2023-10-08T07:35:51;14.40;99.90
12708;DHT22;6418;50.824;4.718;2023-10-08T07:38:25;14.50;99.90
12708;DHT22;6418;50.824;4.718;2023-10-08T07:40:55;14.60;99.90
12708;DHT22;6418;50.824;4.718;2023-10-08T07:43:22;14.60;99.90
12708;DHT22;6418;50.824;4.718;2023-10-08T07:45:49;14.70;99.90
12708;DHT22;6418;50.824;4.718;2023-10-08T07:48:20;14.80;99.90
12708;DHT22;6418;50.824;4.718;2023-10-08T07:50:55;14.80;99.90
12708;DHT22;6418;50.824;4.718;2023-10-08T07:53:22;14.90;99.90
12708;DHT22;6418;50.824;4.718;2023-10-08T07:55:50;15.00;99.90
12708;DHT22;6418;50.824;4.718;2023-10-08T07:58:20;15.00;99.90
12708;DHT22;6418;50.824;4.718;2023-10-08T08:00:47;15.10;99.90
12708;DHT22;6418;50.824;4.718;2023-10-08T08:03:21;15.20;99.90
12708;DHT22;6418;50.824;4.718;2023-10-08T08:05:48;15.30;99.90
12708;DHT22;6418;50.824;4.718;2023-10-08T08:08:20;15.30;99.90
12708;DHT22;6418;50.824;4.718;2023-10-08T08:10:49;15.30;99.90
12708;DHT22;6418;50.824;4.718;2023-10-08T08:13:16;15.40;99.90
12708;DHT22;6418;50.824;4.718;2023-10-08T08:15:48;15.50;99.90
12708;DHT22;6418;50.824;4.718;2023-10-08T08:18:17;15.50;99.90
12708;DHT22;6418;50.824;4.718;2023-10-08T08:20:48;15.60;99.90
12708;DHT22;6418;50.824;4.718;2023-10-08T08:23:15;15.60;99.90
12708;DHT22;6418;50.824;4.718;2023-10-08T08:25:43;15.70;99.90
12708;DHT22;6418;50.824;4.718;2023-10-08T08:28:31;15.70;99.90
12708;DHT22;6418;50.824;4.718;2023-10-08T08:31:03;15.70;99.90
12708;DHT22;6418;50.824;4.718;2023-10-08T08:33:39;15.80;99.90
12708;DHT22;6418;50.824;4.718;2023-10-08T08:36:19;15.90;99.90
12708;DHT22;6418;50.824;4.718;2023-10-08T08:38:47;15.90;99.90
12708;DHT22;6418;50.824;4.718;2023-10-08T08:41:14;16.00;99.90
12708;DHT22;6418;50.824;4.718;2023-10-08T08:43:44;16.10;99.90
12708;DHT22;6418;50.824;4.718;2023-10-08T08:46:15;16.10;99.90
12708;DHT22;6418;50.824;4.718;2023-10-08T08:48:43;16.20;99.90
12708;DHT22;6418;50.824;4.718;2023-10-08T08:51:11;16.30;99.90
12708;DHT22;6418;50.824;4.718;2023-10-08T08:53:39;16.40;99.90
12708;DHT22;6418;50.824;4.718;2023-10-08T08:56:09;16.40;99.90
12708;DHT22;6418;50.824;4.718;2023-10-08T08:58:36;16.50;99.90
12708;DHT22;6418;50.824;4.718;2023-10-08T09:01:06;16.60;99.90
12708;DHT22;6418;50.824;4.718;2023-10-08T09:03:36;16.70;99.90
12708;DHT22;6418;50.824;4.718;2023-10-08T09:06:05;16.70;99.90
12708;DHT22;6418;50.824;4.718;2023-10-08T09:08:36;16.80;99.90
12708;DHT22;6418;50.824;4.718;2023-10-08T09:11:07;16.90;99.90
12708;DHT22;6418;50.824;4.718;2023-10-08T09:13:35;17.00;99.90
12708;DHT22;6418;50.824;4.718;2023-10-08T09:16:13;17.10;99.90
12708;DHT22;6418;50.824;4.718;2023-10-08T09:18:43;17.10;99.90
12708;DHT22;6418;50.824;4.718;2023-10-08T09:21:13;17.20;99.90
12708;DHT22;6418;50.824;4.718;2023-10-08T09:23:41;17.30;99.90
12708;DHT22;6418;50.824;4.718;2023-10-08T09:26:13;17.30;99.90
12708;DHT22;6418;50.824;4.718;2023-10-08T09:28:44;17.40;99.90
12708;DHT22;6418;50.824;4.718;2023-10-08T09:31:12;17.50;99.90
12708;DHT22;6418;50.824;4.718;2023-10-08T09:33:40;17.50;99.90
12708;DHT22;6418;50.824;4.718;2023-10-08T09:36:09;17.50;99.90
12708;DHT22;6418;50.824;4.718;2023-10-08T09:38:44;17.60;99.90
12708;DHT22;6418;50.824;4.718;2023-10-08T09:41:14;17.60;99.90
12708;DHT22;6418;50.824;4.718;2023-10-08T09:43:41;17.70;99.90
12708;DHT22;6418;50.824;4.718;2023-10-08T09:46:12;17.70;99.90
12708;DHT22;6418;50.824;4.718;2023-10-08T09:48:41;17.70;99.90
12708;DHT22;6418;50.824;4.718;2023-10-08T09:51:13;17.80;99.90
12708;DHT22;6418;50.824;4.718;2023-10-08T09:53:47;17.80;99.90
12708;DHT22;6418;50.824;4.718;2023-10-08T09:56:19;17.80;99.90
12708;DHT22;6418;50.824;4.718;2023-10-08T09:58:47;17.90;99.90
12708;DHT22;6418;50.824;4.718;2023-10-08T10:01:17;17.90;99.90
12708;DHT22;6418;50.824;4.718;2023-10-08T10:03:44;18.00;99.90
12708;DHT22;6418;50.824;4.718;2023-10-08T10:06:13;18.00;99.90
12708;DHT22;6418;50.824;4.718;2023-10-08T10:08:43;18.10;99.90
12708;DHT22;6418;50.824;4.718;2023-10-08T10:11:10;18.10;99.90
12708;DHT22;6418;50.824;4.718;2023-10-08T10:13:42;18.20;99.90
12708;DHT22;6418;50.824;4.718;2023-10-08T10:16:10;18.20;99.90
12708;DHT22;6418;50.824;4.718;2023-10-08T10:18:38;18.30;99.90
12708;DHT22;6418;50.824;4.718;2023-10-08T10:21:26;18.40;99.90
12708;DHT22;6418;50.824;4.718;2023-10-08T10:23:55;18.50;99.90
12708;DHT22;6418;50.824;4.718;2023-10-08T10:26:27;18.50;99.90
12708;DHT22;6418;50.824;4.718;2023-10-08T10:29:17;18.60;99.90
12708;DHT22;6418;50.824;4.718;2023-10-08T10:31:46;18.70;99.90
12708;DHT22;6418;50.824;4.718;2023-10-08T10:34:14;18.80;99.90
12708;DHT22;6418;50.824;4.718;2023-10-08T10:36:45;18.80;99.90
12708;DHT22;6418;50.824;4.718;2023-10-08T10:39:15;18.80;99.90
12708;DHT22;6418;50.824;4.718;2023-10-08T10:41:44;18.90;99.90
12708;DHT22;6418;50.824;4.718;2023-10-08T10:44:11;19.00;99.90
12708;DHT22;6418;50.824;4.718;2023-10-08T10:46:41;19.00;99.90
12708;DHT22;6418;50.824;4.718;2023-10-08T10:49:08;19.10;99.90
12708;DHT22;6418;50.824;4.718;2023-10-08T10:51:47;19.10;99.90
12708;DHT22;6418;50.824;4.718;2023-10-08T10:54:17;19.20;99.90
12708;DHT22;6418;50.824;4.718;2023-10-08T10:56:46;19.20;99.90
12708;DHT22;6418;50.824;4.718;2023-10-08T10:59:18;19.30;99.90
12708;DHT22;6418;50.824;4.718;2023-10-08T11:01:48;19.30;99.90
12708;DHT22;6418;50.824;4.718;2023-10-08T11:04:18;19.40;99.90
12708;DHT22;6418;50.824;4.718;2023-10-08T11:06:50;19.40;99.90
12708;DHT22;6418;50.824;4.718;2023-10-08T11:09:22;19.50;99.90
12708;DHT22;6418;50.824;4.718;2023-10-08T11:12:02;19.50;99.90
12708;DHT22;6418;50.824;4.718;2023-10-08T11:14:37;19.50;99.90
12708;DHT22;6418;50.824;4.718;2023-10-08T11:17:11;19.60;99.90
12708;DHT22;6418;50.824;4.718;2023-10-08T11:19:38;19.60;99.90
12708;DHT22;6418;50.824;4.718;2023-10-08T11:22:06;19.70;99.90
12708;DHT22;6418;50.824;4.718;2023-10-08T11:24:34;19.70;99.90
12708;DHT22;6418;50.824;4.718;2023-10-08T11:27:04;19.80;99.90
12708;DHT22;6418;50.824;4.718;2023-10-08T11:29:42;19.70;99.90
12708;DHT22;6418;50.824;4.718;2023-10-08T11:32:10;19.80;99.90
12708;DHT22;6418;50.824;4.718;2023-10-08T11:34:38;19.90;99.90
12708;DHT22;6418;50.824;4.718;2023-10-08T11:37:07;19.90;99.90
12708;DHT22;6418;50.824;4.718;2023-10-08T11:39:46;20.00;99.90
12708;DHT22;6418;50.824;4.718;2023-10-08T11:42:13;20.00;99.90
12708;DHT22;6418;50.824;4.718;2023-10-08T11:44:57;20.10;99.90
12708;DHT22;6418;50.824;4.718;2023-10-08T11:47:25;20.10;99.90
12708;DHT22;6418;50.824;4.718;2023-10-08T11:50:01;20.20;99.90
12708;DHT22;6418;50.824;4.718;2023-10-08T11:52:37;20.20;99.90
12708;DHT22;6418;50.824;4.718;2023-10-08T11:55:08;20.20;99.90
12708;DHT22;6418;50.824;4.718;2023-10-08T11:57:35;20.20;99.90
12708;DHT22;6418;50.824;4.718;2023-10-08T12:00:11;20.30;99.90
12708;DHT22;6418;50.824;4.718;2023-10-08T12:02:44;20.30;99.90
12708;DHT22;6418;50.824;4.718;2023-10-08T12:05:11;20.40;99.90
12708;DHT22;6418;50.824;4.718;2023-10-08T12:07:46;20.40;99.90
12708;DHT22;6418;50.824;4.718;2023-10-08T12:10:14;20.50;99.90
12708;DHT22;6418;50.824;4.718;2023-10-08T12:12:42;20.50;99.90
12708;DHT22;6418;50.824;4.718;2023-10-08T12:15:11;20.60;99.90
12708;DHT22;6418;50.824;4.718;2023-10-08T12:17:46;20.60;99.90
12708;DHT22;6418;50.824;4.718;2023-10-08T12:20:34;20.60;99.90
12708;DHT22;6418;50.824;4.718;2023-10-08T12:23:04;20.60;99.90
12708;DHT22;6418;50.824;4.718;2023-10-08T12:25:31;20.70;99.90
12708;DHT22;6418;50.824;4.718;2023-10-08T12:28:00;20.70;99.90
12708;DHT22;6418;50.824;4.718;2023-10-08T12:30:30;20.80;99.90
12708;DHT22;6418;50.824;4.718;2023-10-08T12:33:07;20.90;99.90
12708;DHT22;6418;50.824;4.718;2023-10-08T12:35:39;21.10;99.90
12708;DHT22;6418;50.824;4.718;2023-10-08T12:38:07;21.10;99.90
12708;DHT22;6418;50.824;4.718;2023-10-08T12:40:35;21.20;99.90
12708;DHT22;6418;50.824;4.718;2023-10-08T12:43:13;21.20;99.90
12708;DHT22;6418;50.824;4.718;2023-10-08T12:45:45;21.30;99.90
12708;DHT22;6418;50.824;4.718;2023-10-08T12:48:21;21.40;99.90
12708;DHT22;6418;50.824;4.718;2023-10-08T12:50:48;21.40;99.90
12708;DHT22;6418;50.824;4.718;2023-10-08T12:53:24;21.50;99.90
12708;DHT22;6418;50.824;4.718;2023-10-08T12:55:59;21.50;99.90
12708;DHT22;6418;50.824;4.718;2023-10-08T12:58:32;21.60;99.90
12708;DHT22;6418;50.824;4.718;2023-10-08T13:01:04;21.60;99.90
12708;DHT22;6418;50.824;4.718;2023-10-08T13:03:33;21.70;99.90
12708;DHT22;6418;50.824;4.718;2023-10-08T13:06:07;21.70;99.90
12708;DHT22;6418;50.824;4.718;2023-10-08T13:08:38;21.70;99.90
12708;DHT22;6418;50.824;4.718;2023-10-08T13:11:05;21.80;99.90
12708;DHT22;6418;50.824;4.718;2023-10-08T13:13:32;21.80;99.90
12708;DHT22;6418;50.824;4.718;2023-10-08T13:16:00;21.80;99.90
12708;DHT22;6418;50.824;4.718;2023-10-08T13:18:32;21.80;99.90
12708;DHT22;6418;50.824;4.718;2023-10-08T13:20:59;21.80;99.90
12708;DHT22;6418;50.824;4.718;2023-10-08T13:23:28;21.80;99.90
12708;DHT22;6418;50.824;4.718;2023-10-08T13:25:57;21.80;99.90
12708;DHT22;6418;50.824;4.718;2023-10-08T13:28:29;21.80;99.90
12708;DHT22;6418;50.824;4.718;2023-10-08T13:30:59;21.80;99.90
12708;DHT22;6418;50.824;4.718;2023-10-08T13:33:26;21.90;99.90
12708;DHT22;6418;50.824;4.718;2023-10-08T13:35:54;21.90;99.90
12708;DHT22;6418;50.824;4.718;2023-10-08T13:38:21;21.90;99.90
12708;DHT22;6418;50.824;4.718;2023-10-08T13:40:49;21.90;99.90
12708;DHT22;6418;50.824;4.718;2023-10-08T13:43:31;21.90;99.90
12708;DHT22;6418;50.824;4.718;2023-10-08T13:46:02;22.00;99.90
12708;DHT22;6418;50.824;4.718;2023-10-08T13:48:32;22.00;99.90
12708;DHT22;6418;50.824;4.718;2023-10-08T13:51:00;22.00;99.90
12708;DHT22;6418;50.824;4.718;2023-10-08T13:53:30;22.00;99.90
12708;DHT22;6418;50.824;4.718;2023-10-08T13:55:58;22.00;99.90
12708;DHT22;6418;50.824;4.718;2023-10-08T13:58:27;22.10;99.90
12708;DHT22;6418;50.824;4.718;2023-10-08T14:00:57;22.10;99.90
12708;DHT22;6418;50.824;4.718;2023-10-08T14:03:26;22.10;99.90
12708;DHT22;6418;50.824;4.718;2023-10-08T14:05:57;22.10;99.90
12708;DHT22;6418;50.824;4.718;2023-10-08T14:08:28;22.10;99.90
12708;DHT22;6418;50.824;4.718;2023-10-08T14:10:56;22.20;99.90
12708;DHT22;6418;50.824;4.718;2023-10-08T14:13:28;22.20;99.90
12708;DHT22;6418;50.824;4.718;2023-10-08T14:15:58;22.20;99.90
12708;DHT22;6418;50.824;4.718;2023-10-08T14:18:30;22.20;99.90
12708;DHT22;6418;50.824;4.718;2023-10-08T14:21:06;22.30;99.90
12708;DHT22;6418;50.824;4.718;2023-10-08T14:23:36;22.30;99.90
12708;DHT22;6418;50.824;4.718;2023-10-08T14:26:05;22.40;99.90
12708;DHT22;6418;50.824;4.718;2023-10-08T14:28:33;22.40;99.90
12708;DHT22;6418;50.824;4.718;2023-10-08T14:31:18;22.40;99.90
12708;DHT22;6418;50.824;4.718;2023-10-08T14:33:48;22.40;99.90
12708;DHT22;6418;50.824;4.718;2023-10-08T14:36:31;22.50;99.90
12708;DHT22;6418;50.824;4.718;2023-10-08T14:39:15;22.50;99.90
12708;DHT22;6418;50.824;4.718;2023-10-08T14:42:00;22.60;99.90
12708;DHT22;6418;50.824;4.718;2023-10-08T14:44:44;22.60;99.90
12708;DHT22;6418;50.824;4.718;2023-10-08T14:47:13;22.70;99.90
12708;DHT22;6418;50.824;4.718;2023-10-08T14:49:41;22.70;99.90
12708;DHT22;6418;50.824;4.718;2023-10-08T14:52:09;22.70;99.90
12708;DHT22;6418;50.824;4.718;2023-10-08T14:54:36;22.80;99.90
12708;DHT22;6418;50.824;4.718;2023-10-08T14:57:05;22.80;99.90
12708;DHT22;6418;50.824;4.718;2023-10-08T14:59:32;22.80;99.90
12708;DHT22;6418;50.824;4.718;2023-10-08T15:01:59;22.80;99.90
12708;DHT22;6418;50.824;4.718;2023-10-08T15:04:28;22.80;99.90
12708;DHT22;6418;50.824;4.718;2023-10-08T15:06:55;22.90;99.90
12708;DHT22;6418;50.824;4.718;2023-10-08T15:09:22;22.90;99.90
12708;DHT22;6418;50.824;4.718;2023-10-08T15:11:50;22.90;99.90
12708;DHT22;6418;50.824;4.718;2023-10-08T15:14:18;23.00;99.90
12708;DHT22;6418;50.824;4.718;2023-10-08T15:16:45;22.90;99.90
12708;DHT22;6418;50.824;4.718;2023-10-08T15:19:18;23.00;99.90
12708;DHT22;6418;50.824;4.718;2023-10-08T15:21:46;23.00;99.90
12708;DHT22;6418;50.824;4.718;2023-10-08T15:24:16;23.00;99.90
12708;DHT22;6418;50.824;4.718;2023-10-08T15:26:44;23.00;99.90
12708;DHT22;6418;50.824;4.718;2023-10-08T15:29:13;23.00;99.90
12708;DHT22;6418;50.824;4.718;2023-10-08T15:31:40;23.10;99.90
12708;DHT22;6418;50.824;4.718;2023-10-08T15:34:08;23.10;99.90
12708;DHT22;6418;50.824;4.718;2023-10-08T15:36:38;23.10;99.90
12708;DHT22;6418;50.824;4.718;2023-10-08T15:39:06;23.10;99.90
12708;DHT22;6418;50.824;4.718;2023-10-08T15:41:36;23.10;99.90
12708;DHT22;6418;50.824;4.718;2023-10-08T15:44:03;23.10;99.90
12708;DHT22;6418;50.824;4.718;2023-10-08T15:46:30;23.00;99.90
12708;DHT22;6418;50.824;4.718;2023-10-08T15:49:00;23.00;99.90
12708;DHT22;6418;50.824;4.718;2023-10-08T15:51:28;23.00;99.90
12708;DHT22;6418;50.824;4.718;2023-10-08T15:53:57;23.00;99.90
12708;DHT22;6418;50.824;4.718;2023-10-08T15:56:26;23.00;99.90
12708;DHT22;6418;50.824;4.718;2023-10-08T15:58:53;23.00;99.90
12708;DHT22;6418;50.824;4.718;2023-10-08T16:01:20;23.00;99.90
12708;DHT22;6418;50.824;4.718;2023-10-08T16:03:47;22.90;99.90
12708;DHT22;6418;50.824;4.718;2023-10-08T16:06:14;22.90;99.90
12708;DHT22;6418;50.824;4.718;2023-10-08T16:08:41;22.90;99.90
12708;DHT22;6418;50.824;4.718;2023-10-08T16:11:08;22.90;99.90
12708;DHT22;6418;50.824;4.718;2023-10-08T16:13:36;22.80;99.90